createdAt,value
2018-01-29T00:01:52.280Z,12.64
2018-01-29T00:04:19.739Z,12.53
2018-01-29T00:06:47.263Z,12.45
2018-01-29T00:09:14.869Z,12.66
2018-01-29T00:11:42.379Z,12.63
2018-01-29T00:14:09.919Z,12.64
2018-01-29T00:16:37.410Z,12.57
2018-01-29T00:19:04.968Z,12.64
2018-01-29T00:21:32.516Z,12.54
2018-01-29T00:24:00.075Z,12.53
2018-01-29T00:26:27.578Z,12.42
2018-01-29T00:28:55.060Z,12.45
2018-01-29T00:31:22.572Z,12.42
2018-01-29T00:33:50.082Z,12.37
2018-01-29T00:36:17.587Z,12.50
2018-01-29T00:38:45.053Z,12.34
2018-01-29T00:41:12.630Z,12.49
2018-01-29T00:43:40.096Z,12.35
2018-01-29T00:46:07.590Z,12.40
2018-01-29T00:48:35.120Z,12.43
2018-01-29T00:51:02.606Z,12.45
2018-01-29T00:53:30.106Z,12.68
2018-01-29T00:55:57.583Z,12.42
2018-01-29T00:58:25.067Z,12.45
2018-01-29T01:00:52.559Z,12.37
2018-01-29T01:03:20.087Z,12.37
2018-01-29T01:05:47.562Z,12.32
2018-01-29T01:08:15.054Z,12.17
2018-01-29T01:10:42.557Z,12.08
2018-01-29T01:13:10.066Z,12.25
2018-01-29T01:15:37.554Z,12.24
2018-01-29T01:18:05.772Z,12.24
2018-01-29T01:20:33.325Z,12.30
2018-01-29T01:23:00.831Z,12.39
2018-01-29T01:25:28.440Z,12.29
2018-01-29T01:27:56.044Z,12.44
2018-01-29T01:30:23.552Z,12.27
2018-01-29T01:32:51.047Z,12.20
2018-01-29T01:35:18.550Z,12.29
2018-01-29T01:37:46.054Z,12.34
2018-01-29T01:40:13.580Z,12.42
2018-01-29T01:42:41.258Z,12.23
2018-01-29T01:45:08.806Z,12.39
2018-01-29T01:47:36.338Z,12.44
2018-01-29T01:50:03.856Z,12.55
2018-01-29T01:52:31.400Z,12.50
2018-01-29T01:54:58.932Z,12.53
2018-01-29T01:57:26.477Z,12.52
2018-01-29T01:59:54.025Z,12.59
2018-01-29T02:02:21.556Z,12.51
2018-01-29T02:04:49.059Z,12.61
2018-01-29T02:07:16.582Z,12.58
2018-01-29T02:09:44.161Z,12.65
2018-01-29T02:12:11.687Z,12.58
2018-01-29T02:14:39.207Z,12.66
2018-01-29T02:17:06.698Z,12.77
2018-01-29T02:19:34.219Z,12.71
2018-01-29T02:22:01.699Z,12.66
2018-01-29T02:24:29.211Z,12.82
2018-01-29T02:26:56.710Z,12.75
2018-01-29T02:29:24.229Z,12.71
2018-01-29T02:31:51.729Z,12.78
2018-01-29T02:34:19.248Z,12.71
2018-01-29T02:36:46.760Z,12.77
2018-01-29T02:39:14.375Z,12.90
2018-01-29T02:41:41.880Z,12.78
2018-01-29T02:44:09.378Z,12.83
2018-01-29T02:46:36.888Z,12.63
2018-01-29T02:49:04.389Z,12.77
2018-01-29T02:51:31.892Z,12.77
2018-01-29T02:53:59.379Z,12.75
2018-01-29T02:56:26.868Z,12.78
2018-01-29T02:58:54.358Z,12.59
2018-01-29T03:01:21.865Z,12.69
2018-01-29T03:03:49.403Z,12.73
2018-01-29T03:06:16.941Z,12.90
2018-01-29T03:08:44.454Z,12.79
2018-01-29T03:11:11.947Z,12.91
2018-01-29T03:13:39.443Z,12.75
2018-01-29T03:16:06.933Z,12.65
2018-01-29T03:18:34.422Z,12.67
2018-01-29T03:21:01.900Z,12.76
2018-01-29T03:23:29.407Z,12.75
2018-01-29T03:25:56.905Z,12.72
2018-01-29T03:28:24.395Z,12.81
2018-01-29T03:30:51.897Z,12.70
2018-01-29T03:33:19.387Z,12.72
2018-01-29T03:35:46.881Z,12.71
2018-01-29T03:38:14.373Z,12.67
2018-01-29T03:40:41.853Z,12.65
2018-01-29T03:43:09.364Z,12.86
2018-01-29T03:45:36.845Z,12.61
2018-01-29T03:48:04.334Z,12.76
2018-01-29T03:50:31.837Z,12.63
2018-01-29T03:52:59.338Z,12.77
2018-01-29T03:55:26.831Z,12.53
2018-01-29T03:57:54.338Z,12.76
2018-01-29T04:00:21.825Z,12.69
2018-01-29T04:02:49.339Z,12.65
2018-01-29T04:05:16.832Z,12.56
2018-01-29T04:07:44.326Z,12.70
2018-01-29T04:10:11.816Z,12.66
2018-01-29T04:12:39.315Z,12.68
2018-01-29T04:15:06.816Z,12.59
2018-01-29T04:17:34.327Z,12.65
2018-01-29T04:20:01.827Z,12.74
2018-01-29T04:22:29.310Z,12.74
2018-01-29T04:24:56.804Z,12.55
2018-01-29T04:27:24.319Z,12.62
2018-01-29T04:29:51.813Z,12.72
2018-01-29T04:32:19.315Z,12.54
2018-01-29T04:34:46.806Z,12.65
2018-01-29T04:37:14.358Z,12.73
2018-01-29T04:39:41.851Z,12.70
2018-01-29T04:42:09.338Z,12.62
2018-01-29T04:44:36.841Z,12.74
2018-01-29T04:47:04.326Z,12.80
2018-01-29T04:49:31.821Z,12.70
2018-01-29T04:51:59.324Z,12.73
2018-01-29T04:54:26.817Z,12.77
2018-01-29T04:56:54.316Z,12.75
2018-01-29T04:59:21.825Z,12.76
2018-01-29T05:01:49.295Z,12.70
2018-01-29T05:04:16.802Z,12.65
2018-01-29T05:06:44.328Z,12.73
2018-01-29T05:09:11.812Z,12.75
2018-01-29T05:11:39.304Z,12.62
2018-01-29T05:14:06.801Z,12.73
2018-01-29T05:16:34.295Z,12.81
2018-01-29T05:19:01.770Z,12.72
2018-01-29T05:21:29.396Z,12.75
2018-01-29T05:23:56.888Z,12.70
2018-01-29T05:26:24.366Z,12.64
2018-01-29T05:28:51.868Z,12.77
2018-01-29T05:31:19.402Z,12.80
2018-01-29T05:33:46.892Z,12.65
2018-01-29T05:39:19.344Z,12.80
2018-01-29T05:41:46.840Z,12.82
2018-01-29T05:44:14.357Z,12.95
2018-01-29T05:46:41.868Z,12.76
2018-01-29T05:49:09.370Z,12.86
2018-01-29T05:51:36.874Z,12.69
2018-01-29T05:54:04.378Z,12.76
2018-01-29T05:56:31.912Z,12.65
2018-01-29T05:58:59.396Z,12.63
2018-01-29T06:01:26.886Z,12.82
2018-01-29T06:03:54.396Z,12.67
2018-01-29T06:06:21.896Z,12.64
2018-01-29T06:08:49.391Z,12.73
2018-01-29T06:11:16.889Z,12.82
2018-01-29T06:13:44.378Z,12.75
2018-01-29T06:16:11.888Z,12.63
2018-01-29T06:18:39.371Z,12.77
2018-01-29T06:21:06.864Z,12.72
2018-01-29T06:23:34.343Z,12.72
2018-01-29T06:26:01.841Z,12.64
2018-01-29T06:28:29.341Z,12.58
2018-01-29T06:30:56.848Z,12.72
2018-01-29T06:33:24.354Z,12.76
2018-01-29T06:35:51.837Z,12.88
2018-01-29T06:38:19.365Z,12.85
2018-01-29T06:40:46.853Z,12.83
2018-01-29T06:43:14.330Z,12.82
2018-01-29T06:45:41.860Z,12.81
2018-01-29T06:48:09.343Z,12.83
2018-01-29T06:50:36.824Z,12.75
2018-01-29T06:53:04.339Z,12.83
2018-01-29T06:55:31.831Z,12.84
2018-01-29T06:57:59.336Z,12.86
2018-01-29T07:00:26.854Z,12.87
2018-01-29T07:02:57.379Z,12.70
2018-01-29T07:05:24.884Z,12.87
2018-01-29T07:07:52.427Z,12.80
2018-01-29T07:10:20.227Z,12.67
2018-01-29T07:12:50.788Z,12.78
2018-01-29T07:15:18.301Z,12.60
2018-01-29T07:17:45.796Z,12.73
2018-01-29T07:20:13.318Z,12.70
2018-01-29T07:22:40.802Z,12.71
2018-01-29T07:25:08.312Z,12.65
2018-01-29T07:27:35.827Z,12.68
2018-01-29T07:30:03.343Z,12.64
2018-01-29T07:32:30.839Z,12.68
2018-01-29T07:34:58.361Z,12.73
2018-01-29T07:37:25.863Z,12.88
2018-01-29T07:39:53.376Z,12.71
2018-01-29T07:42:20.917Z,12.71
2018-01-29T07:44:48.477Z,12.71
2018-01-29T07:47:15.967Z,12.62
2018-01-29T07:49:43.483Z,12.57
2018-01-29T07:52:11.135Z,12.75
2018-01-29T07:54:38.652Z,12.66
2018-01-29T07:57:06.185Z,12.61
2018-01-29T07:59:33.718Z,12.62
2018-01-29T08:02:01.786Z,12.79
2018-01-29T08:04:29.300Z,12.77
2018-01-29T08:07:00.055Z,12.77
2018-01-29T08:09:32.026Z,12.68
2018-01-29T08:11:59.560Z,12.79
2018-01-29T08:14:27.083Z,12.74
2018-01-29T08:16:54.570Z,12.91
2018-01-29T08:19:22.174Z,12.63
2018-01-29T08:21:49.676Z,12.77
2018-01-29T08:24:17.176Z,12.76
2018-01-29T08:26:44.712Z,12.74
2018-01-29T08:29:12.199Z,12.73
2018-01-29T08:31:39.881Z,12.77
2018-01-29T08:34:07.574Z,12.74
2018-01-29T08:36:35.079Z,12.80
2018-01-29T08:39:02.566Z,12.76
2018-01-29T08:41:30.063Z,12.99
2018-01-29T08:43:57.555Z,12.91
2018-01-29T08:46:25.130Z,12.89
2018-01-29T08:48:52.655Z,12.71
2018-01-29T08:51:21.009Z,12.83
2018-01-29T08:53:48.512Z,12.70
2018-01-29T08:56:16.015Z,12.81
2018-01-29T08:58:43.541Z,12.79
2018-01-29T09:01:11.036Z,12.79
2018-01-29T09:03:38.532Z,12.89
2018-01-29T09:06:06.043Z,12.86
2018-01-29T09:08:33.559Z,12.96
2018-01-29T09:11:01.067Z,12.96
2018-01-29T09:13:28.587Z,13.04
2018-01-29T09:15:56.142Z,13.06
2018-01-29T09:18:23.661Z,12.93
2018-01-29T09:20:51.204Z,12.97
2018-01-29T09:23:18.720Z,12.98
2018-01-29T09:25:46.232Z,13.00
2018-01-29T09:28:13.724Z,12.99
2018-01-29T09:30:41.252Z,12.91
2018-01-29T09:33:08.744Z,13.07
2018-01-29T09:35:36.304Z,12.93
2018-01-29T09:38:03.841Z,12.98
2018-01-29T09:40:31.356Z,12.90
2018-01-29T09:42:58.874Z,12.99
2018-01-29T09:45:26.387Z,12.89
2018-01-29T09:47:53.891Z,13.13
2018-01-29T09:50:21.415Z,13.20
2018-01-29T09:52:48.903Z,13.02
2018-01-29T09:55:16.438Z,13.06
2018-01-29T09:57:43.957Z,13.05
2018-01-29T10:00:11.456Z,13.12
2018-01-29T10:02:38.945Z,13.08
2018-01-29T10:05:06.464Z,13.17
2018-01-29T10:07:33.948Z,13.06
2018-01-29T10:10:01.471Z,13.04
2018-01-29T10:12:28.973Z,13.11
2018-01-29T10:14:56.469Z,13.13
2018-01-29T10:17:23.965Z,13.00
2018-01-29T10:19:51.458Z,12.95
2018-01-29T10:22:18.975Z,13.09
2018-01-29T10:24:46.462Z,13.13
2018-01-29T10:27:13.976Z,13.26
2018-01-29T10:29:41.523Z,13.22
2018-01-29T10:32:09.037Z,13.09
2018-01-29T10:34:36.570Z,13.08
2018-01-29T10:37:04.141Z,13.03
2018-01-29T10:39:31.649Z,13.07
2018-01-29T10:41:59.145Z,13.16
2018-01-29T10:44:26.631Z,12.98
2018-01-29T10:46:54.125Z,13.07
2018-01-29T10:49:21.655Z,13.05
2018-01-29T10:51:49.141Z,13.16
2018-01-29T10:54:16.627Z,13.14
2018-01-29T10:56:44.118Z,13.06
2018-01-29T10:59:11.611Z,12.79
2018-01-29T11:01:44.585Z,12.79
2018-01-29T11:04:12.092Z,12.93
2018-01-29T11:06:39.638Z,12.89
2018-01-29T11:09:07.117Z,12.77
2018-01-29T11:11:34.611Z,12.70
2018-01-29T11:14:02.121Z,12.66
2018-01-29T11:16:29.610Z,12.83
2018-01-29T11:18:57.087Z,12.72
2018-01-29T11:21:24.598Z,12.97
2018-01-29T11:23:52.083Z,13.02
2018-01-29T11:26:19.632Z,13.00
2018-01-29T11:28:47.123Z,12.82
2018-01-29T11:31:14.620Z,12.92
2018-01-29T11:33:42.143Z,12.80
2018-01-29T11:36:09.643Z,12.71
2018-01-29T11:38:37.156Z,12.56
2018-01-29T11:41:04.663Z,12.80
2018-01-29T11:43:32.175Z,13.01
2018-01-29T11:45:59.672Z,12.87
2018-01-29T11:48:27.188Z,12.98
2018-01-29T11:50:54.707Z,12.89
2018-01-29T11:53:22.224Z,12.85
2018-01-29T11:55:49.768Z,12.81
2018-01-29T11:58:17.277Z,12.82
2018-01-29T12:00:44.797Z,12.82
2018-01-29T12:03:12.287Z,12.91
2018-01-29T12:05:39.779Z,12.89
2018-01-29T12:08:07.254Z,12.90
2018-01-29T12:10:34.772Z,13.14
2018-01-29T12:13:02.275Z,13.07
2018-01-29T12:15:29.787Z,13.21
2018-01-29T12:17:57.265Z,13.34
2018-01-29T12:20:25.035Z,13.20
2018-01-29T12:22:52.548Z,13.19
2018-01-29T12:25:20.070Z,13.20
2018-01-29T12:27:47.580Z,13.28
2018-01-29T12:30:15.088Z,13.30
2018-01-29T12:32:42.591Z,13.31
2018-01-29T12:35:10.089Z,13.28
2018-01-29T12:37:37.599Z,13.26
2018-01-29T12:40:05.072Z,13.33
2018-01-29T12:42:32.577Z,13.29
2018-01-29T12:45:00.202Z,13.43
2018-01-29T12:47:27.674Z,13.51
2018-01-29T12:49:55.148Z,13.56
2018-01-29T12:52:22.654Z,13.50
2018-01-29T12:54:50.129Z,13.54
2018-01-29T12:57:17.639Z,13.63
2018-01-29T12:59:45.133Z,13.64
2018-01-29T13:02:12.638Z,13.66
2018-01-29T13:04:40.135Z,13.52
2018-01-29T13:07:07.635Z,13.67
2018-01-29T13:09:35.174Z,13.66
2018-01-29T13:12:02.711Z,13.59
2018-01-29T13:14:30.210Z,13.66
2018-01-29T13:16:57.686Z,13.63
2018-01-29T13:19:25.190Z,13.68
2018-01-29T13:21:52.701Z,13.73
2018-01-29T13:24:20.275Z,13.74
2018-01-29T13:26:47.826Z,13.71
2018-01-29T13:29:15.344Z,13.71
2018-01-29T13:31:42.865Z,13.74
2018-01-29T13:34:10.353Z,13.78
2018-01-29T13:36:37.859Z,13.82
2018-01-29T13:39:05.420Z,13.87
2018-01-29T13:41:32.942Z,13.87
2018-01-29T13:44:00.418Z,13.89
2018-01-29T13:46:27.943Z,13.97
2018-01-29T13:48:55.435Z,14.15
2018-01-29T13:51:22.963Z,14.13
2018-01-29T13:53:50.447Z,14.24
2018-01-29T13:56:17.930Z,14.14
2018-01-29T13:58:45.455Z,14.07
2018-01-29T14:01:12.951Z,13.96
2018-01-29T14:03:40.450Z,13.77
2018-01-29T14:06:07.966Z,13.79
2018-01-29T14:08:35.471Z,13.73
2018-01-29T14:11:02.950Z,13.59
2018-01-29T14:13:30.431Z,13.56
2018-01-29T14:15:57.921Z,13.35
2018-01-29T14:18:25.404Z,13.17
2018-01-29T14:20:52.902Z,13.09
2018-01-29T14:23:20.418Z,13.10
2018-01-29T14:25:47.971Z,13.14
2018-01-29T14:28:15.402Z,13.18
2018-01-29T14:30:42.919Z,13.22
2018-01-29T14:33:10.406Z,13.27
2018-01-29T14:35:37.903Z,13.30
2018-01-29T14:38:05.411Z,13.29
2018-01-29T14:40:32.925Z,13.30
2018-01-29T14:43:00.404Z,13.30
2018-01-29T14:45:27.905Z,13.10
2018-01-29T14:47:55.406Z,13.22
2018-01-29T14:50:22.884Z,13.20
2018-01-29T14:52:50.370Z,13.29
2018-01-29T14:55:17.857Z,13.39
2018-01-29T14:57:45.351Z,13.41
2018-01-29T15:00:12.834Z,13.48
2018-01-29T15:02:40.330Z,13.51
2018-01-29T15:05:07.807Z,13.58
2018-01-29T15:07:35.314Z,13.64
2018-01-29T15:10:02.832Z,13.75
2018-01-29T15:12:30.358Z,13.73
2018-01-29T15:14:57.839Z,13.68
2018-01-29T15:17:25.318Z,13.71
2018-01-29T15:19:52.812Z,13.70
2018-01-29T15:22:20.296Z,13.61
2018-01-29T15:24:47.814Z,13.66
2018-01-29T15:27:15.323Z,13.72
2018-01-29T15:29:42.803Z,13.75
2018-01-29T15:32:10.291Z,13.71
2018-01-29T15:34:37.784Z,13.68
2018-01-29T15:37:05.280Z,13.63
2018-01-29T15:39:32.758Z,13.73
2018-01-29T15:42:00.255Z,13.79
2018-01-29T15:44:27.743Z,13.71
2018-01-29T15:46:55.236Z,13.57
2018-01-29T15:49:22.742Z,13.63
2018-01-29T15:51:50.233Z,13.61
2018-01-29T15:54:17.722Z,13.58
2018-01-29T15:56:45.216Z,13.58
2018-01-29T15:59:12.715Z,13.63
2018-01-29T16:01:40.203Z,13.65
2018-01-29T16:04:07.759Z,13.51
2018-01-29T16:06:35.285Z,13.53
2018-01-29T16:09:02.822Z,13.51
2018-01-29T16:11:30.296Z,13.44
2018-01-29T16:13:57.774Z,13.37
2018-01-29T16:16:25.270Z,13.30
2018-01-29T16:18:52.763Z,13.20
2018-01-29T16:21:20.260Z,13.15
2018-01-29T16:23:47.759Z,13.09
2018-01-29T16:26:15.258Z,12.98
2018-01-29T16:28:42.803Z,12.91
2018-01-29T16:31:10.304Z,12.77
2018-01-29T16:33:37.792Z,12.71
2018-01-29T16:36:05.307Z,12.61
2018-01-29T16:38:32.809Z,12.51
2018-01-29T16:41:00.333Z,12.47
2018-01-29T16:43:27.827Z,12.38
2018-01-29T16:45:55.310Z,12.30
2018-01-29T16:48:22.806Z,12.21
2018-01-29T16:50:50.405Z,12.16
2018-01-29T16:53:17.897Z,12.09
2018-01-29T16:55:45.400Z,11.96
2018-01-29T16:58:12.922Z,11.90
2018-01-29T17:00:40.435Z,11.83
2018-01-29T17:03:07.943Z,11.73
2018-01-29T17:05:35.448Z,11.64
2018-01-29T17:08:03.027Z,11.61
2018-01-29T17:10:30.538Z,11.55
2018-01-29T17:12:58.031Z,11.49
2018-01-29T17:15:25.535Z,11.47
2018-01-29T17:17:53.026Z,11.42
2018-01-29T17:20:20.583Z,11.36
2018-01-29T17:22:48.075Z,11.37
2018-01-29T17:25:15.586Z,11.33
2018-01-29T17:27:43.099Z,11.28
2018-01-29T17:30:10.645Z,11.28
2018-01-29T17:32:38.159Z,11.25
2018-01-29T17:35:05.658Z,11.21
2018-01-29T17:37:33.280Z,11.18
2018-01-29T17:40:00.782Z,11.10
2018-01-29T17:42:28.285Z,11.08
2018-01-29T17:44:55.815Z,11.05
2018-01-29T17:47:23.337Z,11.00
2018-01-29T17:49:50.835Z,10.99
2018-01-29T17:52:18.427Z,10.94
2018-01-29T17:54:45.944Z,10.92
2018-01-29T17:57:13.453Z,10.87
2018-01-29T17:59:40.955Z,10.82
2018-01-29T18:02:08.499Z,10.71
2018-01-29T18:04:36.011Z,10.66
2018-01-29T18:07:03.547Z,10.61
2018-01-29T18:09:31.043Z,10.58
2018-01-29T18:11:58.518Z,10.56
2018-01-29T18:14:26.054Z,10.52
2018-01-29T18:16:53.547Z,10.44
2018-01-29T18:19:21.050Z,10.38
2018-01-29T18:21:48.564Z,10.36
2018-01-29T18:24:16.071Z,10.36
2018-01-29T18:26:43.584Z,10.39
2018-01-29T18:29:11.071Z,10.34
2018-01-29T18:31:38.568Z,10.25
2018-01-29T18:34:06.140Z,10.22
2018-01-29T18:36:33.646Z,10.18
2018-01-29T18:39:01.159Z,10.19
2018-01-29T18:41:28.678Z,10.18
2018-01-29T18:43:56.276Z,10.18
2018-01-29T18:46:23.784Z,10.09
2018-01-29T18:48:51.314Z,10.04
2018-01-29T18:51:18.815Z,10.01
2018-01-29T18:53:46.328Z,9.99
2018-01-29T18:56:13.834Z,9.93
2018-01-29T18:58:41.344Z,9.91
2018-01-29T19:01:08.847Z,9.85
2018-01-29T19:03:36.448Z,9.78
2018-01-29T19:06:04.123Z,9.78
2018-01-29T19:08:31.611Z,9.79
2018-01-29T19:10:59.173Z,9.79
2018-01-29T19:13:26.687Z,9.72
2018-01-29T19:15:54.225Z,9.63
2018-01-29T19:18:21.714Z,9.56
2018-01-29T19:20:49.230Z,9.56
2018-01-29T19:23:16.717Z,9.54
2018-01-29T19:25:44.220Z,9.47
2018-01-29T19:28:11.738Z,9.40
2018-01-29T19:30:39.259Z,9.38
2018-01-29T19:33:06.762Z,9.41
2018-01-29T19:35:34.251Z,9.39
2018-01-29T19:38:01.791Z,9.31
2018-01-29T19:40:29.289Z,9.29
2018-01-29T19:42:56.810Z,9.27
2018-01-29T19:45:24.287Z,9.25
2018-01-29T19:47:51.827Z,9.22
2018-01-29T19:50:19.320Z,9.18
2018-01-29T19:52:46.826Z,9.17
2018-01-29T19:55:14.331Z,9.16
2018-01-29T19:57:41.812Z,9.09
2018-01-29T20:00:09.308Z,9.04
2018-01-29T20:02:36.812Z,9.02
2018-01-29T20:05:04.326Z,8.95
2018-01-29T20:07:31.887Z,8.94
2018-01-29T20:09:59.369Z,8.86
2018-01-29T20:12:26.879Z,8.83
2018-01-29T20:14:54.355Z,8.81
2018-01-29T20:17:21.840Z,8.80
2018-01-29T20:19:49.357Z,8.76
2018-01-29T20:22:16.839Z,8.71
2018-01-29T20:24:44.341Z,8.66
2018-01-29T20:27:11.855Z,8.62
2018-01-29T20:29:39.363Z,8.57
2018-01-29T20:32:06.858Z,8.56
2018-01-29T20:34:34.419Z,8.51
2018-01-29T20:37:02.027Z,8.44
2018-01-29T20:39:29.543Z,8.46
2018-01-29T20:41:57.028Z,8.48
2018-01-29T20:44:24.550Z,8.47
2018-01-29T20:46:52.044Z,8.35
2018-01-29T20:49:19.524Z,8.31
2018-01-29T20:51:47.027Z,8.27
2018-01-29T20:54:14.545Z,8.22
2018-01-29T20:56:42.164Z,8.21
2018-01-29T20:59:09.690Z,8.21
2018-01-29T21:01:37.171Z,8.19
2018-01-29T21:04:04.651Z,8.20
2018-01-29T21:06:32.130Z,8.21
2018-01-29T21:09:00.056Z,8.21
2018-01-29T21:11:27.535Z,8.17
2018-01-29T21:13:55.039Z,8.13
2018-01-29T21:16:22.522Z,8.07
2018-01-29T21:18:50.007Z,8.06
2018-01-29T21:21:17.467Z,8.02
2018-01-29T21:23:44.999Z,7.92
2018-01-29T21:26:12.483Z,7.92
2018-01-29T21:28:39.962Z,7.94
2018-01-29T21:31:07.486Z,7.97
2018-01-29T21:33:34.996Z,8.01
2018-01-29T21:36:02.488Z,8.07
2018-01-29T21:38:30.035Z,8.09
2018-01-29T21:40:57.539Z,8.08
2018-01-29T21:43:25.114Z,8.07
2018-01-29T21:45:52.627Z,8.06
2018-01-29T21:48:20.115Z,8.05
2018-01-29T21:50:47.627Z,8.03
2018-01-29T21:53:15.125Z,8.03
2018-01-29T21:55:42.659Z,8.02
2018-01-29T21:58:10.144Z,7.97
2018-01-29T22:00:37.665Z,7.95
2018-01-29T22:03:05.160Z,7.93
2018-01-29T22:05:32.692Z,7.82
2018-01-29T22:08:00.233Z,7.81
2018-01-29T22:10:27.757Z,7.80
2018-01-29T22:12:55.264Z,7.80
2018-01-29T22:15:22.823Z,7.76
2018-01-29T22:17:50.323Z,7.77
2018-01-29T22:20:17.825Z,7.77
2018-01-29T22:22:45.347Z,7.77
2018-01-29T22:25:12.851Z,7.74
2018-01-29T22:27:40.336Z,7.73
2018-01-29T22:30:07.840Z,7.70
2018-01-29T22:32:35.327Z,7.70
2018-01-29T22:35:02.845Z,7.64
2018-01-29T22:37:30.350Z,7.59
2018-01-29T22:39:57.898Z,7.58
2018-01-29T22:42:25.373Z,7.54
2018-01-29T22:44:52.856Z,7.53
2018-01-29T22:47:20.389Z,7.54
2018-01-29T22:49:47.870Z,7.46
2018-01-29T22:52:15.367Z,7.43
2018-01-29T22:54:42.851Z,7.41
2018-01-29T22:57:10.413Z,7.41
2018-01-29T22:59:37.905Z,7.37
2018-01-29T23:02:05.424Z,7.35
2018-01-29T23:04:32.941Z,7.33
2018-01-29T23:07:00.438Z,7.30
2018-01-29T23:09:27.955Z,7.28
2018-01-29T23:11:55.450Z,7.29
2018-01-29T23:14:22.927Z,7.26
2018-01-29T23:16:50.428Z,7.26
2018-01-29T23:19:17.941Z,7.22
2018-01-29T23:21:45.432Z,7.22
2018-01-29T23:24:12.939Z,7.20
2018-01-29T23:26:40.418Z,7.19
2018-01-29T23:29:07.899Z,7.17
2018-01-29T23:31:35.395Z,7.12
2018-01-29T23:34:02.887Z,7.08
2018-01-29T23:36:30.368Z,7.06
2018-01-29T23:38:57.888Z,7.03
2018-01-29T23:41:25.455Z,6.99
2018-01-29T23:43:52.939Z,6.97
2018-01-29T23:46:20.444Z,6.92
2018-01-29T23:48:47.927Z,6.76
2018-01-29T23:51:15.409Z,6.72
2018-01-29T23:53:42.904Z,6.77
2018-01-29T23:56:10.378Z,6.78
2018-01-29T23:58:37.867Z,6.80
